Latest Weather Observations for Merriwa

IDN60801

Issued at 11:32 pm EDT Saturday 10 December 2016 (issued every 30 minutes, with the page automatically refreshed every 10 minutes)

About weather observations | Map of weather stations | Latest weather observations for NSW | Other Formats
Station Details ID: 061287 Name: MERRIWA (ROSCOMMON) Lat: -32.19 Lon: 150.17 Height: 375.0 m
Data from the previous 72 hours. | See also: Recent months at Merriwa
Date/Time
EDT
Temp
°C
App
Temp
°C
Dew
Point
°C
Rel
Hum
%
Delta-T
°C
Wind Press
QNH
hPa
Press
MSL
hPa
Rain since
9am
mm
Dir  Spd
km/h
Gust
km/h
Spd
kts
Gust
kts
10/11:30pm 16.9 15.6 12.4 75 2.5 ESE 11 15 6 8 1020.3 1018.7 0.0
10/11:00pm 17.8 15.5 12.9 73 2.8 ESE 17 24 9 13 1020.3 1018.7 0.0
10/10:30pm 18.2 15.8 12.6 70 3.2 ESE 17 28 9 15 1020.3 1018.7 0.0
10/10:00pm 18.7 16.8 12.9 69 3.3 ESE 15 20 8 11 1020.1 1018.5 0.0
10/09:30pm 19.6 16.7 12.8 65 3.9 ESE 20 28 11 15 1019.6 1018.1 0.0
10/09:00pm 21.3 18.4 12.4 57 5.1 E 19 30 10 16 1019.0 1017.5 0.0
10/08:30pm 22.8 19.5 10.9 47 6.7 E 19 26 10 14 1018.6 1017.1 0.0
10/08:00pm 23.7 20.7 6.0 32 9.2 E 11 17 6 9 1018.2 1016.7 0.0
10/07:30pm 26.2 22.9 6.3 28 10.5 E 13 17 7 9 1017.9 1016.3 0.0
10/07:00pm 28.0 24.9 5.6 24 11.8 ESE 11 15 6 8 1017.6 1016.0 0.0
10/06:30pm 28.7 26.1 4.2 21 12.7 SE 7 11 4 6 1017.3 1015.7 0.0
10/06:00pm 29.0 25.6 3.8 20 13.0 SW 11 22 6 12 1017.1 1015.6 0.0
10/05:30pm 29.6 26.6 4.3 20 13.2 SW 9 13 5 7 1017.3 1015.7 0.0
10/05:00pm 29.4 26.1 4.8 21 12.9 NNE 11 19 6 10 1017.4 1015.8 0.0
10/04:30pm 29.3 26.4 4.7 21 12.9 NNE 9 17 5 9 1017.9 1016.3 0.0
10/04:00pm 28.7 25.3 6.1 24 12.1 NNE 13 17 7 9 1018.3 1016.8 0.0
10/03:30pm 29.6 26.3 6.3 23 12.6 ESE 13 20 7 11 1018.6 1017.1 0.0
10/03:00pm 28.9 26.2 7.5 26 11.7 ESE 11 20 6 11 1019.1 1017.6 0.0
10/02:30pm 28.6 25.1 7.2 26 11.7 E 15 24 8 13 1019.4 1017.9 0.0
10/02:00pm 27.3 24.2 7.2 28 10.9 NE 13 20 7 11 1019.9 1018.4 0.0
10/01:30pm 26.5 24.3 8.0 31 10.1 NNW 9 24 5 13 1020.4 1018.9 0.0
10/01:00pm 26.5 24.1 8.5 32 9.9 ESE 11 19 6 10 1020.8 1019.3 0.0
10/12:30pm 25.6 23.8 9.4 36 9.0 SE 9 24 5 13 1021.3 1019.8 0.0
10/12:00pm 25.3 23.3 10.0 38 8.6 ESE 11 20 6 11 1021.6 1020.1 0.0
10/11:30am 24.1 21.3 10.0 41 7.9 ESE 15 24 8 13 1021.9 1020.4 0.0
10/11:00am 23.8 21.5 10.5 43 7.5 NE 13 20 7 11 1022.0 1020.5 0.0
10/10:30am 22.6 19.6 10.7 47 6.7 ESE 17 26 9 14 1022.2 1020.7 0.0
10/10:00am 21.8 19.7 11.2 51 6.0 ENE 13 28 7 15 1022.2 1020.7 0.0
10/09:30am 20.7 18.0 11.6 56 5.1 E 17 26 9 14 1022.4 1020.9 0.0
10/09:00am 19.0 15.8 11.3 61 4.3 ESE 19 28 10 15 1022.3 1020.8 0.0
10/08:30am 18.9 16.5 12.6 67 3.6 E 17 24 9 13 1022.3 1020.8 0.0
10/08:00am 17.7 15.5 13.2 75 2.6 E 17 24 9 13 1022.3 1020.8 0.0
10/07:30am 16.0 14.5 13.1 83 1.6 E 13 19 7 10 1021.9 1020.4 0.0
10/07:00am 13.7 14.8 13.5 99 0.1 CALM 0 0 0 0 1021.6 1020.1 0.0
10/06:30am 10.4 10.5 10.1 98 0.2 CALM 0 0 0 0 1021.2 1019.7 0.0
10/06:00am 9.3 9.1 9.0 98 0.1 CALM 0 0 0 0 1020.8 1019.3 0.0
10/05:30am 9.5 9.3 9.2 98 0.2 CALM 0 0 0 0 1020.6 1019.1 0.0
10/05:00am 9.5 8.9 9.0 97 0.3 SSE 2 6 1 3 1020.2 1018.6 0.0
10/04:30am 10.8 9.3 10.5 98 0.2 SE 9 11 5 6 1019.7 1018.2 0.0
10/04:00am 10.7 10.9 10.4 98 0.2 CALM 0 0 0 0 1019.5 1018.0 0.0
10/03:30am 12.1 11.0 11.8 98 0.2 SE 9 13 5 7 1019.4 1017.9 0.0
10/03:00am 11.8 11.1 11.5 98 0.2 E 6 9 3 5 1019.3 1017.8 0.0
10/02:30am 12.3 11.6 12.0 98 0.2 E 7 9 4 5 1019.1 1017.6 0.0
10/02:00am 12.4 11.0 12.1 98 0.2 E 11 15 6 8 1019.3 1017.8 0.0
10/01:30am 10.8 9.2 8.2 84 1.3 ENE 6 9 3 5 1019.4 1017.9 0.0
10/01:00am 10.2 7.7 5.0 70 2.4 ENE 7 11 4 6 1019.2 1017.7 0.0
10/12:30am 9.7 6.9 3.0 63 2.9 ESE 7 11 4 6 1019.2 1017.7 0.0
10/12:00am 11.6 10.2 3.6 58 3.6 CALM 0 0 0 0 1018.9 1017.4 0.0
 
Date/Time
EDT
Temp
°C
App
Temp
°C
Dew
Point
°C
Rel
Hum
%
Delta-T
°C
Wind Press
QNH
hPa
Press
MSL
hPa
Rain since
9am
mm
Dir  Spd
km/h
Gust
km/h
Spd
kts
Gust
kts
09/11:30pm 12.0 9.2 3.3 55 3.9 W 7 9 4 5 1018.6 1017.1 0.0
09/11:00pm 11.9 8.8 3.7 57 3.7 W 9 11 5 6 1018.3 1016.8 0.0
09/10:30pm 11.7 9.0 3.5 57 3.7 W 7 11 4 6 1018.1 1016.6 0.0
09/10:00pm 12.6 9.4 3.3 53 4.2 W 9 11 5 6 1017.8 1016.2 0.0
09/09:30pm 14.8 12.0 3.3 46 5.3 W 7 11 4 6 1017.6 1016.0 0.0
09/09:00pm 15.5 12.2 2.3 41 6.0 W 9 11 5 6 1017.0 1015.5 0.0
09/08:30pm 17.7 14.3 1.7 34 7.3 W 9 13 5 7 1016.6 1015.1 0.0
09/08:00pm 19.4 15.2 1.9 31 8.1 WSW 13 17 7 9 1016.2 1014.7 0.0
09/07:30pm 21.4 16.9 2.2 28 9.1 WSW 15 20 8 11 1015.6 1014.1 0.0
09/07:00pm 22.8 18.7 2.3 26 9.9 WSW 13 22 7 12 1015.2 1013.6 0.0
09/06:30pm 23.1 18.2 2.0 25 10.1 WSW 17 30 9 16 1014.5 1012.9 0.0
09/06:00pm 24.1 19.2 2.3 24 10.6 SW 17 24 9 13 1013.9 1012.4 0.0
09/05:30pm 23.4 17.5 1.7 24 10.4 WSW 22 32 12 17 1013.5 1012.0 0.0
09/05:00pm 24.1 17.8 1.7 23 10.8 WSW 24 33 13 18 1013.6 1012.1 0.0
09/04:30pm 24.0 18.7 2.8 25 10.4 WSW 20 30 11 16 1013.3 1011.8 0.0
09/04:00pm 24.0 18.4 3.3 26 10.2 WSW 22 35 12 19 1013.4 1011.9 0.0
09/03:30pm 23.7 18.0 3.1 26 10.1 W 22 35 12 19 1013.6 1012.1 0.0
09/03:00pm 23.8 18.1 2.6 25 10.3 W 22 43 12 23 1013.5 1012.0 0.0
09/02:30pm 23.4 16.9 2.8 26 10.1 W 26 44 14 24 1013.5 1012.0 0.0
09/02:00pm 23.2 18.1 4.2 29 9.5 WSW 20 37 11 20 1013.5 1012.0 0.0
09/01:30pm 22.4 16.5 4.0 30 9.1 W 24 41 13 22 1013.7 1012.2 0.0
09/01:00pm 22.9 17.5 4.4 30 9.3 WSW 22 35 12 19 1013.9 1012.4 0.0
09/12:30pm 21.5 15.9 3.2 30 8.9 WSW 22 35 12 19 1013.8 1012.3 0.0
09/12:00pm 20.8 14.0 3.1 31 8.5 WSW 28 41 15 22 1013.8 1012.3 0.0
09/11:30am 21.7 15.6 4.7 33 8.5 WNW 26 41 14 22 1013.6 1012.1 0.0
09/11:00am 19.8 12.7 3.5 34 7.9 W 30 41 16 22 1013.3 1011.8 0.0
09/10:30am 19.9 13.3 4.4 36 7.6 W 28 43 15 23 1013.3 1011.8 0.0
09/10:00am 18.7 12.6 2.9 35 7.5 WSW 24 35 13 19 1012.9 1011.3 0.0
09/09:30am 18.7 11.8 4.5 39 6.9 WSW 30 44 16 24 1012.6 1011.0 0.0
09/09:00am 18.2 12.1 4.7 41 6.6 SW 26 41 14 22 1012.5 1010.9 0.0
09/08:30am 17.5 12.4 6.1 47 5.7 WSW 22 32 12 17 1012.3 1010.7 0.0
09/08:00am 16.0 11.1 7.0 55 4.5 W 22 30 12 16 1011.9 1010.3 0.0
09/07:30am 15.4 11.5 9.3 67 3.2 W 20 30 11 16 1011.7 1010.1 0.0
09/07:00am 14.5 9.9 9.7 73 2.5 WNW 24 33 13 18 1011.2 1009.7 0.0
09/06:30am 13.6 9.8 9.8 78 2.0 WNW 20 32 11 17 1010.7 1009.1 0.0
09/06:00am 12.9 9.0 9.5 80 1.8 WNW 20 26 11 14 1010.2 1008.6 0.0
09/05:30am 13.5 9.8 9.4 76 2.1 WNW 19 26 10 14 1009.7 1008.1 0.0
09/05:00am 14.0 10.2 9.0 72 2.6 WNW 19 26 10 14 1009.2 1007.6 0.0
09/04:30am 15.1 10.7 9.0 67 3.2 W 22 37 12 20 1008.6 1007.1 0.0
09/04:00am 15.9 11.4 8.4 61 3.9 W 22 33 12 18 1008.0 1006.4 0.0
09/03:30am 16.9 12.1 7.5 54 4.8 W 22 35 12 19 1007.8 1006.2 0.0
09/03:00am 17.5 12.8 6.1 47 5.7 WSW 20 32 11 17 1007.3 1005.7 0.0
09/02:30am 17.9 13.3 6.4 47 5.8 W 20 33 11 18 1007.1 1005.5 0.0
09/02:00am 18.3 12.9 9.4 56 4.8 W 28 43 15 23 1006.6 1005.0 0.0
09/01:30am 18.9 13.6 11.2 61 4.3 WNW 30 41 16 22 1006.3 1004.7 0.0
09/01:00am 19.6 16.1 13.5 68 3.6 W 24 33 13 18 1005.9 1004.3 0.0
09/12:30am 21.1 18.5 15.9 72 3.2 W 24 41 13 22 1005.5 1003.9 0.0
09/12:00am 21.5 18.9 15.8 70 3.5 W 24 39 13 21 1004.9 1003.3 0.0
 
Date/Time
EDT
Temp
°C
App
Temp
°C
Dew
Point
°C
Rel
Hum
%
Delta-T
°C
Wind Press
QNH
hPa
Press
MSL
hPa
Rain since
9am
mm
Dir  Spd
km/h
Gust
km/h
Spd
kts
Gust
kts
08/11:30pm 21.9 18.8 15.7 68 3.8 WNW 26 37 14 20 1004.4 1002.8 0.0
08/11:00pm 22.0 19.7 15.6 67 3.9 WNW 22 33 12 18 1004.3 1002.7 0.0
08/10:30pm 22.6 20.1 15.2 63 4.5 WNW 22 35 12 19 1004.6 1003.0 0.0
08/10:00pm 23.5 18.5 15.0 59 5.2 WSW 35 54 19 29 1004.3 1002.7 0.0
08/09:30pm 24.3 17.6 15.2 57 5.5 WSW 44 69 24 37 1003.9 1002.3 0.0
08/09:00pm 26.9 19.6 12.9 42 8.3 W 43 63 23 34 1002.5 1000.9 0.0
08/08:50pm 28.8 24.9 12.2 35 9.8 NNW 24 65 13 35 1001.8 1000.2 0.0
08/08:49pm 29.0 25.2 12.4 36 9.9 NNW 24 52 13 28 1002.0 1000.4 0.0
08/08:30pm 30.3 28.0 11.8 32 10.9 NNW 15 20 8 11 1000.3 998.7 0.0
08/08:00pm 31.0 28.0 11.9 31 11.4 WNW 19 26 10 14 1000.1 998.5 0.0
08/07:30pm 32.7 29.7 11.8 28 12.5 WNW 19 28 10 15 999.9 998.3 0.0
08/07:00pm 34.1 30.0 11.3 25 13.7 WNW 24 39 13 21 1000.0 998.4 0.0
08/06:30pm 33.9 29.3 11.1 25 13.5 WNW 26 41 14 22 999.8 998.2 0.0
08/06:00pm 34.9 30.0 12.5 25 13.7 WNW 30 44 16 24 999.9 998.3 0.0
08/05:38pm 34.5 28.6 10.4 23 14.2 W 32 50 17 27 999.8 998.2 0.0
08/05:30pm 35.1 29.7 10.9 23 14.4 W 30 46 16 25 999.7 998.1 0.0
08/05:20pm 34.7 29.0 9.9 22 14.5 WNW 30 50 16 27 999.6 998.0 0.0
08/05:00pm 35.8 30.4 12.1 24 14.5 WNW 32 48 17 26 999.6 998.0 0.0
08/04:45pm 35.5 30.2 12.5 25 14.0 WNW 32 50 17 27 1000.0 998.4 0.0
08/04:30pm 36.2 31.8 13.0 24 14.3 WNW 28 41 15 22 1000.1 998.5 0.0
08/04:00pm 33.1 30.1 14.7 33 11.5 NNW 24 35 13 19 1001.0 999.3 0.0
08/03:45pm 35.8 30.8 13.3 26 13.9 WNW 32 50 17 27 1001.2 999.5 0.0
08/03:30pm 33.9 30.4 13.4 29 12.6 W 24 43 13 23 1001.5 999.9 0.0
08/03:01pm 35.2 30.9 14.5 29 13.0 W 30 48 16 26 1002.0 1000.4 0.0
08/03:00pm 35.3 30.9 15.1 30 12.8 W 32 48 17 26 1002.0 1000.4 0.0
08/02:39pm 35.9 32.0 15.6 30 13.0 WNW 30 48 16 26 1002.3 1000.7 0.0
08/02:30pm 35.5 31.2 15.3 30 12.8 NW 32 54 17 29 1002.6 1001.0 0.0
08/02:13pm 33.5 28.5 14.0 30 12.1 WNW 33 48 18 26 1003.3 1001.6 0.0
08/02:00pm 35.1 31.9 15.4 30 12.6 NW 26 35 14 19 1003.5 1001.8 0.0
08/01:30pm 33.3 29.3 15.3 34 11.4 WNW 30 43 16 23 1004.3 1002.7 0.0
08/01:02pm 32.7 28.6 14.8 34 11.2 NW 30 50 16 27 1004.8 1003.2 0.0
08/01:00pm 33.6 30.5 16.5 36 11.0 WNW 28 43 15 23 1004.8 1003.2 0.0
08/12:30pm 33.1 29.6 16.5 37 10.6 NW 30 46 16 25 1005.6 1004.0 0.0
08/12:00pm 30.6 26.9 15.1 39 9.7 NW 28 41 15 22 1006.6 1005.0 0.0
08/11:30am 30.9 27.2 16.1 41 9.4 NW 30 50 16 27 1007.2 1005.6 0.0
08/11:29am 31.5 28.3 16.3 40 9.7 NW 28 50 15 27 1007.2 1005.6 0.0
08/11:13am 30.8 28.8 16.4 42 9.2 NW 22 46 12 25 1007.5 1005.9 0.0
08/11:00am 29.1 28.4 17.3 49 7.6 NW 17 24 9 13 1007.8 1006.2 0.0
08/10:30am 27.7 29.2 18.1 56 6.2 NNE 7 15 4 8 1008.4 1006.8 0.0
08/10:00am 24.6 25.9 17.6 65 4.4 NNE 7 15 4 8 1009.2 1007.6 0.0
08/09:30am 22.8 24.5 18.1 75 3.0 N 6 11 3 6 1010.0 1008.4 0.0
08/09:00am 20.8 22.1 17.6 82 2.0 NE 7 11 4 6 1010.6 1009.0 0.2
08/08:59am 21.0 22.6 17.8 82 2.0 NE 6 11 3 6 1010.6 1009.0 0.2
08/08:30am 18.9 21.1 18.4 97 0.3 E 4 7 2 4 1011.0 1009.5 0.2
08/08:00am 17.2 18.2 16.9 98 0.2 ESE 7 11 4 6 1011.3 1009.8 0.2
08/07:30am 16.9 17.8 16.7 99 0.1 E 7 11 4 6 1011.4 1009.9 0.2
08/07:00am 16.8 17.3 16.6 99 0.1 E 9 13 5 7 1011.4 1009.9 0.2
08/06:30am 16.5 17.3 16.3 99 0.1 E 7 11 4 6 1011.3 1009.8 0.2
08/06:00am 16.4 16.8 16.2 99 0.1 E 9 13 5 7 1011.1 1009.6 0.2
08/05:30am 16.4 16.8 16.2 99 0.1 E 9 17 5 9 1011.1 1009.6 0.2
08/05:00am 16.5 16.5 16.3 99 0.1 E 11 17 6 9 1011.2 1009.7 0.2
08/04:30am 16.3 16.6 16.1 99 0.1 ESE 9 9 5 5 1011.3 1009.8 0.2
08/04:05am 15.8 15.9 15.6 99 0.1 E 9 11 5 6 1011.4 1009.9 0.2
08/04:00am 15.6 16.0 15.4 99 0.1 E 7 11 4 6 1011.4 1009.9 0.2
08/03:30am 15.1 14.9 14.8 98 0.2 E 9 11 5 6 1011.7 1010.1 0.2
08/03:00am 15.3 15.2 15.0 98 0.2 ESE 9 11 5 6 1011.9 1010.3 0.2
08/02:30am 15.2 15.1 14.9 98 0.2 ESE 9 11 5 6 1012.0 1010.4 0.2
08/02:00am 16.1 16.3 15.8 98 0.2 ESE 9 13 5 7 1012.4 1010.8 0.2
08/01:30am 16.3 16.6 16.0 98 0.2 ESE 9 13 5 7 1012.7 1011.1 0.2
08/01:00am 16.8 16.9 16.5 98 0.2 SE 11 13 6 7 1013.3 1011.8 0.2
08/12:30am 16.7 16.8 16.4 98 0.2 ESE 11 13 6 7 1013.6 1012.1 0.2
08/12:00am 17.2 17.2 16.2 94 0.6 ESE 11 13 6 7 1013.9 1012.4 0.2

Other Formats:

Comma delimited format used in spreadsheet applications
http://www.bom.gov.au/fwo/IDN60801/IDN60801.95754.axf

JavaScript Object Notation format (JSON) in row-major order
http://www.bom.gov.au/fwo/IDN60801/IDN60801.95754.json